createdAt,value
2023-02-22T00:02:20.307Z,6.84
2023-02-22T00:04:46.595Z,6.71
2023-02-22T00:07:12.899Z,6.61
2023-02-22T00:09:39.546Z,6.50
2023-02-22T00:12:05.846Z,6.48
2023-02-22T00:14:32.156Z,6.47
2023-02-22T00:16:58.528Z,6.49
2023-02-22T00:19:24.785Z,6.50
2023-02-22T00:21:51.057Z,6.48
2023-02-22T00:24:17.317Z,6.42
2023-02-22T00:26:43.586Z,6.40
2023-02-22T00:29:09.890Z,6.39
2023-02-22T00:31:36.264Z,6.36
2023-02-22T00:34:02.541Z,6.36
2023-02-22T00:36:28.805Z,6.36
2023-02-22T00:38:55.077Z,6.33
2023-02-22T00:41:21.368Z,6.29
2023-02-22T00:43:47.630Z,6.25
2023-02-22T00:46:13.923Z,6.20
2023-02-22T00:48:40.238Z,6.20
2023-02-22T00:51:06.523Z,6.15
2023-02-22T00:53:32.864Z,6.20
2023-02-22T00:55:59.116Z,6.21
2023-02-22T00:58:25.389Z,6.19
2023-02-22T01:00:51.737Z,6.18
2023-02-22T01:03:18.046Z,6.18
2023-02-22T01:05:44.498Z,6.20
2023-02-22T01:08:10.986Z,6.19
2023-02-22T01:10:37.254Z,6.19
2023-02-22T01:13:03.525Z,6.25
2023-02-22T01:15:29.793Z,6.27
2023-02-22T01:17:56.095Z,6.25
2023-02-22T01:20:22.358Z,6.16
2023-02-22T01:22:48.617Z,6.13
2023-02-22T01:25:14.878Z,6.10
2023-02-22T01:27:41.153Z,6.06
2023-02-22T01:30:07.503Z,6.05
2023-02-22T01:32:33.775Z,5.98
2023-02-22T01:35:00.094Z,5.92
2023-02-22T01:37:26.366Z,5.87
2023-02-22T01:39:52.693Z,5.89
2023-02-22T01:42:18.951Z,5.88
2023-02-22T01:44:45.252Z,5.83
2023-02-22T01:47:11.520Z,5.76
2023-02-22T01:49:37.799Z,5.71
2023-02-22T01:52:04.051Z,5.68
2023-02-22T01:54:30.334Z,5.67
2023-02-22T01:56:56.625Z,5.74
2023-02-22T01:59:22.893Z,5.73
2023-02-22T02:01:49.146Z,5.72
2023-02-22T02:04:15.453Z,5.75
2023-02-22T02:06:41.785Z,5.69
2023-02-22T02:09:08.047Z,5.65
2023-02-22T02:11:34.316Z,5.63
2023-02-22T02:14:00.570Z,5.66
2023-02-22T02:16:26.879Z,5.67
2023-02-22T02:18:53.143Z,5.67
2023-02-22T02:21:19.398Z,5.65
2023-02-22T02:23:45.680Z,5.65
2023-02-22T02:26:11.972Z,5.58
2023-02-22T02:28:38.249Z,5.51
2023-02-22T02:31:04.584Z,5.47
2023-02-22T02:33:30.920Z,5.47
2023-02-22T02:35:57.185Z,5.47
2023-02-22T02:38:23.542Z,5.46
2023-02-22T02:40:49.879Z,5.52
2023-02-22T02:43:16.169Z,5.58
2023-02-22T02:45:42.430Z,5.58
2023-02-22T02:48:08.694Z,5.57
2023-02-22T02:50:34.980Z,5.54
2023-02-22T02:53:01.235Z,5.47
2023-02-22T02:55:27.519Z,5.45
2023-02-22T02:57:53.781Z,5.44
2023-02-22T03:00:20.089Z,5.38
2023-02-22T03:02:46.374Z,5.36
2023-02-22T03:05:12.658Z,5.41
2023-02-22T03:07:39.062Z,5.44
2023-02-22T03:10:05.390Z,5.43
2023-02-22T03:12:31.740Z,5.46
2023-02-22T03:14:58.029Z,5.46
2023-02-22T03:17:24.287Z,5.43
2023-02-22T03:19:50.593Z,5.38
2023-02-22T03:22:16.864Z,5.33
2023-02-22T03:24:43.135Z,5.30
2023-02-22T03:27:09.466Z,5.27
2023-02-22T03:29:35.763Z,5.28
2023-02-22T03:32:02.116Z,5.28
2023-02-22T03:34:28.430Z,5.23
2023-02-22T03:36:54.705Z,5.21
2023-02-22T03:39:20.999Z,5.20
2023-02-22T03:41:47.314Z,5.19
2023-02-22T03:44:13.585Z,5.19
2023-02-22T03:46:39.971Z,5.21
2023-02-22T03:49:06.446Z,5.19
2023-02-22T03:51:32.732Z,5.14
2023-02-22T03:53:58.994Z,5.10
2023-02-22T03:56:25.296Z,5.11
2023-02-22T03:58:51.573Z,5.13
2023-02-22T04:01:18.164Z,5.12
2023-02-22T04:03:44.554Z,5.13
2023-02-22T04:06:10.808Z,5.15
2023-02-22T04:08:37.074Z,5.18
2023-02-22T04:11:03.352Z,5.15
2023-02-22T04:13:29.672Z,5.15
2023-02-22T04:15:55.999Z,5.15
2023-02-22T04:18:22.271Z,5.12
2023-02-22T04:20:48.543Z,5.12
2023-02-22T04:23:14.836Z,5.07
2023-02-22T04:25:41.101Z,5.05
2023-02-22T04:28:07.356Z,5.04
2023-02-22T04:30:33.635Z,5.04
2023-02-22T04:32:59.938Z,5.00
2023-02-22T04:35:26.217Z,5.00
2023-02-22T04:37:52.499Z,5.04
2023-02-22T04:40:18.764Z,5.08
2023-02-22T04:42:45.072Z,5.10
2023-02-22T04:45:11.341Z,5.07
2023-02-22T04:47:37.615Z,5.05
2023-02-22T04:50:03.893Z,5.06
2023-02-22T04:52:30.174Z,5.15
2023-02-22T04:54:56.453Z,5.20
2023-02-22T04:57:22.740Z,5.26
2023-02-22T04:59:49.040Z,5.30
2023-02-22T05:02:15.307Z,5.31
2023-02-22T05:04:41.644Z,5.38
2023-02-22T05:07:07.954Z,5.37
2023-02-22T05:09:34.210Z,5.37
2023-02-22T05:12:00.511Z,5.33
2023-02-22T05:14:26.860Z,5.34
2023-02-22T05:16:53.121Z,5.33
2023-02-22T05:19:19.411Z,5.32
2023-02-22T05:21:45.703Z,5.34
2023-02-22T05:24:11.986Z,5.35
2023-02-22T05:26:38.241Z,5.38
2023-02-22T05:29:04.534Z,5.37
2023-02-22T05:31:30.937Z,5.38
2023-02-22T05:33:57.249Z,5.38
2023-02-22T05:36:23.524Z,5.39
2023-02-22T05:38:49.784Z,5.42
2023-02-22T05:41:16.410Z,5.41
2023-02-22T05:43:42.917Z,5.42
2023-02-22T05:46:09.220Z,5.41
2023-02-22T05:48:35.540Z,5.38
2023-02-22T05:51:01.797Z,5.33
2023-02-22T05:53:28.089Z,5.33
2023-02-22T05:55:54.523Z,5.33
2023-02-22T05:58:20.840Z,5.34
2023-02-22T06:00:47.120Z,5.31
2023-02-22T06:03:13.383Z,5.31
2023-02-22T06:05:39.684Z,5.32
2023-02-22T06:08:05.997Z,5.33
2023-02-22T06:10:32.275Z,5.32
2023-02-22T06:12:58.590Z,5.24
2023-02-22T06:15:24.857Z,5.20
2023-02-22T06:17:51.151Z,5.19
2023-02-22T06:20:17.455Z,5.24
2023-02-22T06:22:43.731Z,5.22
2023-02-22T06:25:10.008Z,5.21
2023-02-22T06:27:36.429Z,5.22
2023-02-22T06:30:02.682Z,5.20
2023-02-22T06:32:28.988Z,5.26
2023-02-22T06:34:55.319Z,5.30
2023-02-22T06:37:21.581Z,5.33
2023-02-22T06:39:47.847Z,5.31
2023-02-22T06:42:14.143Z,5.27
2023-02-22T06:44:40.443Z,5.23
2023-02-22T06:47:06.717Z,5.24
2023-02-22T06:49:32.980Z,5.25
2023-02-22T06:51:59.254Z,5.23
2023-02-22T06:54:25.513Z,5.24
2023-02-22T06:56:51.768Z,5.27
2023-02-22T06:59:18.054Z,5.29
2023-02-22T07:01:44.346Z,5.29
2023-02-22T07:04:10.690Z,5.31
2023-02-22T07:06:36.944Z,5.32
2023-02-22T07:09:03.267Z,5.35
2023-02-22T07:11:29.542Z,5.37
2023-02-22T07:13:55.847Z,5.35
2023-02-22T07:16:22.142Z,5.32
2023-02-22T07:18:48.462Z,5.35
2023-02-22T07:21:14.990Z,5.33
2023-02-22T07:23:41.431Z,5.33
2023-02-22T07:26:07.720Z,5.35
2023-02-22T07:28:33.997Z,5.38
2023-02-22T07:31:00.249Z,5.47
2023-02-22T07:33:26.495Z,5.57
2023-02-22T07:35:52.816Z,5.63
2023-02-22T07:38:19.099Z,5.66
2023-02-22T07:40:45.388Z,5.70
2023-02-22T07:43:11.745Z,5.75
2023-02-22T07:45:38.005Z,5.74
2023-02-22T07:48:04.293Z,5.73
2023-02-22T07:50:30.580Z,5.69
2023-02-22T07:52:56.869Z,5.69
2023-02-22T07:55:23.151Z,5.75
2023-02-22T07:57:49.515Z,5.76
2023-02-22T08:00:15.822Z,5.74
2023-02-22T08:02:42.140Z,5.74
2023-02-22T08:05:08.413Z,5.81
2023-02-22T08:07:34.685Z,5.84
2023-02-22T08:10:00.974Z,5.92
2023-02-22T08:12:27.249Z,5.96
2023-02-22T08:14:53.538Z,6.00
2023-02-22T08:17:19.846Z,6.09
2023-02-22T08:19:46.179Z,6.23
2023-02-22T08:22:12.456Z,6.28
2023-02-22T08:24:38.734Z,6.33
2023-02-22T08:27:05.006Z,6.39
2023-02-22T08:29:31.284Z,6.45
2023-02-22T08:31:57.741Z,6.56
2023-02-22T08:34:24.084Z,6.62
2023-02-22T08:36:50.342Z,6.77
2023-02-22T08:39:16.631Z,6.90
2023-02-22T08:41:42.896Z,6.93
2023-02-22T08:44:09.160Z,7.13
2023-02-22T08:46:35.409Z,7.20
2023-02-22T08:49:01.654Z,7.26
2023-02-22T08:51:27.972Z,7.26
2023-02-22T08:53:54.238Z,7.36
2023-02-22T08:56:20.512Z,7.35
2023-02-22T08:58:46.830Z,7.29
2023-02-22T09:01:15.527Z,7.31
2023-02-22T09:03:45.504Z,7.36
2023-02-22T09:06:11.875Z,7.46
2023-02-22T09:08:38.209Z,7.43
2023-02-22T09:11:04.497Z,7.43
2023-02-22T09:13:30.846Z,7.44
2023-02-22T09:15:57.145Z,7.51
2023-02-22T09:18:24.530Z,7.60
2023-02-22T09:20:51.836Z,7.72
2023-02-22T09:23:19.323Z,7.74
2023-02-22T09:25:46.453Z,7.88
2023-02-22T09:28:12.732Z,7.92
2023-02-22T09:30:39.119Z,7.92
2023-02-22T09:33:05.625Z,8.05
2023-02-22T09:35:31.964Z,8.12
2023-02-22T09:37:58.254Z,8.09
2023-02-22T09:40:24.575Z,7.98
2023-02-22T09:42:51.108Z,8.19
2023-02-22T09:45:17.369Z,8.30
2023-02-22T09:47:43.669Z,8.28
2023-02-22T09:50:10.075Z,8.35
2023-02-22T09:52:36.349Z,8.46
2023-02-22T09:55:02.637Z,8.59
2023-02-22T09:57:28.925Z,8.63
2023-02-22T09:59:55.241Z,8.71
2023-02-22T10:02:21.506Z,8.63
2023-02-22T10:04:47.871Z,8.64
2023-02-22T10:07:14.150Z,8.80
2023-02-22T10:09:40.400Z,8.80
2023-02-22T10:12:06.683Z,8.78
2023-02-22T10:14:32.972Z,8.81
2023-02-22T10:16:59.239Z,8.82
2023-02-22T10:19:25.519Z,8.94
2023-02-22T10:21:51.791Z,8.82
2023-02-22T10:24:18.104Z,8.99
2023-02-22T10:26:44.417Z,9.16
2023-02-22T10:29:10.740Z,9.27
2023-02-22T10:31:37.107Z,9.38
2023-02-22T10:34:03.377Z,9.38
2023-02-22T10:36:29.735Z,9.38
2023-02-22T10:38:56.018Z,9.47
2023-02-22T10:41:22.290Z,9.45
2023-02-22T10:43:48.562Z,9.49
2023-02-22T10:46:15.228Z,9.59
2023-02-22T10:48:41.727Z,9.52
2023-02-22T10:51:08.106Z,9.59
2023-02-22T10:53:36.378Z,9.65
2023-02-22T10:56:02.864Z,9.79
2023-02-22T10:58:29.165Z,9.84
2023-02-22T11:00:55.453Z,9.84
2023-02-22T11:03:21.744Z,9.87
2023-02-22T11:05:48.025Z,9.93
2023-02-22T11:08:14.296Z,9.88
2023-02-22T11:10:40.592Z,9.93
2023-02-22T11:13:06.892Z,10.03
2023-02-22T11:15:33.175Z,10.14
2023-02-22T11:17:59.434Z,10.08
2023-02-22T11:20:25.779Z,10.09
2023-02-22T11:22:52.111Z,10.04
2023-02-22T11:25:18.400Z,10.08
2023-02-22T11:27:44.667Z,10.09
2023-02-22T11:30:11.021Z,10.08
2023-02-22T11:32:37.320Z,10.05
2023-02-22T11:35:09.301Z,10.01
2023-02-22T11:37:35.853Z,10.08
2023-02-22T11:40:02.152Z,10.08
2023-02-22T11:42:28.437Z,10.01
2023-02-22T11:44:54.693Z,9.93
2023-02-22T11:47:21.059Z,10.00
2023-02-22T11:49:47.325Z,9.95
2023-02-22T11:52:13.608Z,9.92
2023-02-22T11:54:39.915Z,9.90
2023-02-22T11:57:06.197Z,9.95
2023-02-22T11:59:32.453Z,9.97
2023-02-22T12:01:58.749Z,9.95
2023-02-22T12:04:25.083Z,10.08
2023-02-22T12:06:51.377Z,10.06
2023-02-22T12:09:17.668Z,10.11
2023-02-22T12:11:43.953Z,10.13
2023-02-22T12:14:10.296Z,10.21
2023-02-22T12:16:36.576Z,10.20
2023-02-22T12:19:02.884Z,10.22
2023-02-22T12:21:29.176Z,10.19
2023-02-22T12:23:55.502Z,10.05
2023-02-22T12:26:21.823Z,10.16
2023-02-22T12:28:48.115Z,10.22
2023-02-22T12:31:14.856Z,10.16
2023-02-22T12:33:41.413Z,10.15
2023-02-22T12:36:07.693Z,10.13
2023-02-22T12:38:33.977Z,10.17
2023-02-22T12:41:00.310Z,10.19
2023-02-22T12:43:26.576Z,10.07
2023-02-22T12:45:52.851Z,10.02
2023-02-22T12:48:19.150Z,9.96
2023-02-22T12:50:45.434Z,9.92
2023-02-22T12:53:11.791Z,9.90
2023-02-22T12:55:38.123Z,9.89
2023-02-22T12:58:04.391Z,9.84
2023-02-22T13:00:30.700Z,9.83
2023-02-22T13:02:57.179Z,9.82
2023-02-22T13:05:23.505Z,9.77
2023-02-22T13:07:49.877Z,9.68
2023-02-22T13:10:16.141Z,9.64
2023-02-22T13:12:42.389Z,9.69
2023-02-22T13:15:08.661Z,9.67
2023-02-22T13:17:34.952Z,9.65
2023-02-22T13:20:01.237Z,9.61
2023-02-22T13:22:27.545Z,9.60
2023-02-22T13:24:53.819Z,9.57
2023-02-22T13:27:20.084Z,9.61
2023-02-22T13:29:46.384Z,9.67
2023-02-22T13:32:12.665Z,9.74
2023-02-22T13:34:38.968Z,9.83
2023-02-22T13:37:05.257Z,9.88
2023-02-22T13:39:31.540Z,9.96
2023-02-22T13:41:57.804Z,9.94
2023-02-22T13:44:24.094Z,9.90
2023-02-22T13:46:50.430Z,9.88
2023-02-22T13:49:16.805Z,9.87
2023-02-22T13:51:43.091Z,9.92
2023-02-22T13:54:09.467Z,9.88
2023-02-22T13:56:35.940Z,9.82
2023-02-22T13:59:02.249Z,9.82
2023-02-22T14:01:28.564Z,9.80
2023-02-22T14:03:54.880Z,9.90
2023-02-22T14:06:21.141Z,9.93
2023-02-22T14:08:47.409Z,9.90
2023-02-22T14:11:13.662Z,9.80
2023-02-22T14:13:39.928Z,9.81
2023-02-22T14:16:06.272Z,9.83
2023-02-22T14:18:32.563Z,9.85
2023-02-22T14:20:58.845Z,9.89
2023-02-22T14:23:25.122Z,9.89
2023-02-22T14:25:51.411Z,9.90
2023-02-22T14:28:17.763Z,9.94
2023-02-22T14:30:44.074Z,10.11
2023-02-22T14:33:10.353Z,10.20
2023-02-22T14:35:49.130Z,10.16
2023-02-22T14:38:16.316Z,10.19
2023-02-22T14:40:42.579Z,10.25
2023-02-22T14:43:08.850Z,10.22
2023-02-22T14:45:35.271Z,10.16
2023-02-22T14:48:01.557Z,10.12
2023-02-22T14:50:27.870Z,10.10
2023-02-22T14:52:54.121Z,10.08
2023-02-22T14:55:20.421Z,10.06
2023-02-22T14:57:46.783Z,10.06
2023-02-22T15:00:13.097Z,10.06
2023-02-22T15:02:39.428Z,10.11
2023-02-22T15:05:05.762Z,10.14
2023-02-22T15:07:32.036Z,10.15
2023-02-22T15:09:58.338Z,10.22
2023-02-22T15:12:24.614Z,10.16
2023-02-22T15:14:50.920Z,10.21
2023-02-22T15:17:17.205Z,10.16
2023-02-22T15:19:43.470Z,10.18
2023-02-22T15:22:09.781Z,10.18
2023-02-22T15:24:36.039Z,10.19
2023-02-22T15:27:04.941Z,10.19
2023-02-22T15:29:32.165Z,10.22
2023-02-22T15:31:58.470Z,10.22
2023-02-22T15:34:24.773Z,10.25
2023-02-22T15:36:51.193Z,10.22
2023-02-22T15:39:17.697Z,10.15
2023-02-22T15:41:43.993Z,10.11
2023-02-22T15:44:22.668Z,10.08
2023-02-22T15:46:49.829Z,10.04
2023-02-22T15:49:16.105Z,10.03
2023-02-22T15:51:42.394Z,10.05
2023-02-22T15:54:13.306Z,9.99
2023-02-22T15:56:47.831Z,10.00
2023-02-22T15:59:14.157Z,9.92
2023-02-22T16:01:42.482Z,9.88
2023-02-22T16:04:09.090Z,9.90
2023-02-22T16:06:35.427Z,9.89
2023-02-22T16:09:01.797Z,9.90
2023-02-22T16:11:28.080Z,9.87
2023-02-22T16:13:54.366Z,9.90
2023-02-22T16:16:20.700Z,9.85
2023-02-22T16:18:47.010Z,9.83
2023-02-22T16:21:13.304Z,9.86
2023-02-22T16:23:39.575Z,9.85
2023-02-22T16:26:05.853Z,9.84
2023-02-22T16:28:32.142Z,9.83
2023-02-22T16:30:58.523Z,9.80
2023-02-22T16:33:24.859Z,9.79
2023-02-22T16:35:51.152Z,9.76
2023-02-22T16:38:17.432Z,9.71
2023-02-22T16:40:43.689Z,9.70
2023-02-22T16:43:09.944Z,9.65
2023-02-22T16:45:36.233Z,9.65
2023-02-22T16:48:02.516Z,9.66
2023-02-22T16:50:28.781Z,9.69
2023-02-22T16:52:55.064Z,9.66
2023-02-22T16:55:21.417Z,9.63
2023-02-22T16:57:47.702Z,9.59
2023-02-22T17:00:13.960Z,9.59
2023-02-22T17:02:40.319Z,9.59
2023-02-22T17:05:06.622Z,9.57
2023-02-22T17:07:32.921Z,9.56
2023-02-22T17:09:59.221Z,9.55
2023-02-22T17:12:25.480Z,9.56
2023-02-22T17:14:51.734Z,9.57
2023-02-22T17:17:18.017Z,9.57
2023-02-22T17:19:44.292Z,9.56
2023-02-22T17:22:10.574Z,9.59
2023-02-22T17:24:36.868Z,9.63
2023-02-22T17:27:03.159Z,9.63
2023-02-22T17:29:29.524Z,9.65
2023-02-22T17:31:55.811Z,9.67
2023-02-22T17:34:22.079Z,9.67
2023-02-22T17:36:48.366Z,9.67
2023-02-22T17:39:14.688Z,9.67
2023-02-22T17:41:41.039Z,9.67
2023-02-22T17:44:07.329Z,9.69
2023-02-22T17:46:33.654Z,9.66
2023-02-22T17:48:59.920Z,9.64
2023-02-22T17:51:26.188Z,9.64
2023-02-22T17:53:52.470Z,9.67
2023-02-22T17:56:19.250Z,9.69
2023-02-22T17:58:45.803Z,9.68
2023-02-22T18:01:12.076Z,9.62
2023-02-22T18:03:38.399Z,9.58
2023-02-22T18:06:04.731Z,9.53
2023-02-22T18:08:31.090Z,9.56
2023-02-22T18:10:57.525Z,9.56
2023-02-22T18:13:23.796Z,9.54
2023-02-22T18:15:50.167Z,9.55
2023-02-22T18:18:16.471Z,9.55
2023-02-22T18:20:42.766Z,9.53
2023-02-22T18:23:09.059Z,9.57
2023-02-22T18:25:35.368Z,9.59
2023-02-22T18:28:01.657Z,9.52
2023-02-22T18:30:27.998Z,9.48
2023-02-22T18:32:54.324Z,9.54
2023-02-22T18:35:20.623Z,9.50
2023-02-22T18:37:46.909Z,9.46
2023-02-22T18:40:13.221Z,9.44
2023-02-22T18:42:39.580Z,9.41
2023-02-22T18:45:05.830Z,9.38
2023-02-22T18:47:32.120Z,9.37
2023-02-22T18:49:58.421Z,9.36
2023-02-22T18:52:24.729Z,9.37
2023-02-22T18:54:51.085Z,9.44
2023-02-22T18:57:17.377Z,9.43
2023-02-22T18:59:43.661Z,9.41
2023-02-22T19:02:10.005Z,9.35
2023-02-22T19:04:36.433Z,9.34
2023-02-22T19:07:02.741Z,9.35
2023-02-22T19:09:29.009Z,9.31
2023-02-22T19:11:55.287Z,9.30
2023-02-22T19:14:21.555Z,9.35
2023-02-22T19:16:47.832Z,9.38
2023-02-22T19:19:14.136Z,9.41
2023-02-22T19:21:40.462Z,9.35
2023-02-22T19:24:06.793Z,9.34
2023-02-22T19:26:33.067Z,9.31
2023-02-22T19:28:59.326Z,9.32
2023-02-22T19:31:25.793Z,9.29
2023-02-22T19:33:52.212Z,9.33
2023-02-22T19:36:18.872Z,9.29
2023-02-22T19:38:45.310Z,9.26
2023-02-22T19:41:11.611Z,9.26
2023-02-22T19:43:37.960Z,9.27
2023-02-22T19:46:04.253Z,9.23
2023-02-22T19:48:30.550Z,9.26
2023-02-22T19:50:56.842Z,9.24
2023-02-22T19:53:23.150Z,9.24
2023-02-22T19:55:49.482Z,9.28
2023-02-22T19:58:15.815Z,9.21
2023-02-22T20:00:42.092Z,9.19
2023-02-22T20:03:08.442Z,9.15
2023-02-22T20:05:34.739Z,9.13
2023-02-22T20:08:01.085Z,9.10
2023-02-22T20:10:27.419Z,9.11
2023-02-22T20:12:53.689Z,9.18
2023-02-22T20:15:19.977Z,9.18
2023-02-22T20:17:46.246Z,9.11
2023-02-22T20:20:12.535Z,9.06
2023-02-22T20:22:38.812Z,9.04
2023-02-22T20:25:05.097Z,9.02
2023-02-22T20:27:31.479Z,9.00
2023-02-22T20:29:57.761Z,8.97
2023-02-22T20:32:24.345Z,8.93
2023-02-22T20:34:50.713Z,8.95
2023-02-22T20:37:16.992Z,8.89
2023-02-22T20:39:43.273Z,8.87
2023-02-22T20:42:09.596Z,8.87
2023-02-22T20:44:35.893Z,8.86
2023-02-22T20:47:02.147Z,8.85
2023-02-22T20:49:28.502Z,8.82
2023-02-22T20:51:54.913Z,8.81
2023-02-22T20:54:21.257Z,8.80
2023-02-22T20:56:48.640Z,8.78
2023-02-22T20:59:14.970Z,8.78
2023-02-22T21:01:41.266Z,8.77
2023-02-22T21:04:07.753Z,8.76
2023-02-22T21:06:34.054Z,8.76
2023-02-22T21:09:00.340Z,8.75
2023-02-22T21:11:26.631Z,8.74
2023-02-22T21:13:52.970Z,8.75
2023-02-22T21:16:19.463Z,8.73
2023-02-22T21:18:45.812Z,8.76
2023-02-22T21:21:12.122Z,8.81
2023-02-22T21:23:38.506Z,8.81
2023-02-22T21:26:04.822Z,8.83
2023-02-22T21:28:49.923Z,8.82
2023-02-22T21:31:17.358Z,8.83
2023-02-22T21:33:43.965Z,8.81
2023-02-22T21:36:10.237Z,8.79
2023-02-22T21:38:36.609Z,8.79
2023-02-22T21:41:02.919Z,8.78
2023-02-22T21:43:29.220Z,8.81
2023-02-22T21:45:55.542Z,8.81
2023-02-22T21:48:21.828Z,8.80
2023-02-22T21:50:48.099Z,8.87
2023-02-22T21:53:14.371Z,8.91
2023-02-22T21:55:40.669Z,8.90
2023-02-22T21:58:07.307Z,8.88
2023-02-22T22:00:33.638Z,8.89
2023-02-22T22:02:59.928Z,8.89
2023-02-22T22:05:26.256Z,8.87
2023-02-22T22:07:52.534Z,8.88
2023-02-22T22:10:18.800Z,8.89
2023-02-22T22:12:45.116Z,8.87
2023-02-22T22:15:11.409Z,8.86
2023-02-22T22:17:37.675Z,8.82
2023-02-22T22:20:03.969Z,8.86
2023-02-22T22:22:30.274Z,8.89
2023-02-22T22:24:56.570Z,8.91
2023-02-22T22:27:22.868Z,8.90
2023-02-22T22:29:49.145Z,8.92
2023-02-22T22:32:15.632Z,8.92
2023-02-22T22:34:42.218Z,8.90
2023-02-22T22:37:08.524Z,8.89
2023-02-22T22:39:34.780Z,8.89
2023-02-22T22:42:01.036Z,8.88
2023-02-22T22:44:27.297Z,8.89
2023-02-22T22:46:53.874Z,8.88
2023-02-22T22:49:20.247Z,8.87
2023-02-22T22:51:46.496Z,8.87
2023-02-22T22:54:12.885Z,8.83
2023-02-22T22:56:39.145Z,8.83
2023-02-22T22:59:05.466Z,8.83
2023-02-22T23:01:31.737Z,8.83
2023-02-22T23:04:01.329Z,8.84
2023-02-22T23:06:27.928Z,8.84
2023-02-22T23:08:54.200Z,8.85
2023-02-22T23:11:20.486Z,8.83
2023-02-22T23:13:46.738Z,8.89
2023-02-22T23:16:13.137Z,8.87
2023-02-22T23:18:39.486Z,8.86
2023-02-22T23:21:05.787Z,8.89
2023-02-22T23:23:32.095Z,8.90
2023-02-22T23:25:58.370Z,8.91
2023-02-22T23:28:24.651Z,8.91
2023-02-22T23:30:50.961Z,8.90
2023-02-22T23:33:17.241Z,8.91
2023-02-22T23:35:43.499Z,8.90
2023-02-22T23:38:11.219Z,8.89
2023-02-22T23:40:37.578Z,8.90
2023-02-22T23:43:03.851Z,8.91
2023-02-22T23:45:30.140Z,8.94
2023-02-22T23:47:56.446Z,8.96
2023-02-22T23:50:22.737Z,8.99
2023-02-22T23:52:49.001Z,8.98
2023-02-22T23:55:15.285Z,8.96
2023-02-22T23:57:41.555Z,8.95
